createdAt,value
2022-12-01T17:24:59.023Z,3.64
2022-12-01T17:27:44.728Z,3.79
2022-12-01T17:30:29.895Z,3.39
2022-12-01T17:33:14.741Z,3.63
2022-12-01T17:35:59.965Z,3.38
2022-12-01T17:38:45.263Z,3.40
2022-12-01T17:41:30.178Z,3.33
2022-12-01T17:44:14.953Z,3.37
2022-12-01T17:47:00.017Z,3.49
2022-12-01T17:49:44.957Z,3.62
2022-12-01T17:52:29.991Z,3.52
2022-12-01T17:55:15.346Z,3.28
2022-12-01T17:58:01.192Z,3.27
2022-12-01T18:00:46.357Z,3.44
2022-12-01T18:03:31.760Z,3.45
2022-12-01T18:06:17.352Z,3.67
2022-12-01T18:09:02.447Z,3.48
2022-12-01T18:11:48.269Z,3.31
2022-12-01T18:14:33.740Z,3.48
2022-12-01T18:17:18.889Z,3.41
2022-12-01T18:20:04.641Z,3.52
2022-12-01T18:22:49.802Z,3.61
2022-12-01T18:25:34.787Z,3.71
2022-12-01T18:28:19.664Z,3.46
2022-12-01T18:31:04.816Z,3.48
2022-12-01T18:33:50.114Z,3.65
2022-12-01T18:36:35.495Z,3.43
2022-12-01T18:39:21.117Z,3.49
2022-12-01T18:42:06.408Z,3.61
2022-12-01T18:44:51.967Z,3.80
2022-12-01T18:47:37.568Z,3.46
2022-12-01T18:50:22.976Z,3.77
2022-12-01T18:53:07.815Z,3.66
2022-12-01T18:55:53.770Z,3.59
2022-12-01T18:58:39.152Z,3.56
2022-12-01T19:01:24.637Z,3.64
2022-12-01T19:04:10.144Z,3.61
2022-12-01T19:06:55.644Z,3.65
2022-12-01T19:09:40.953Z,3.69
2022-12-01T19:12:26.460Z,3.66
2022-12-01T19:15:11.493Z,3.45
2022-12-01T19:17:57.306Z,3.73
2022-12-01T19:20:42.630Z,3.66
2022-12-01T19:23:27.841Z,3.70
2022-12-01T19:26:13.123Z,3.93
2022-12-01T19:28:58.526Z,3.80
2022-12-01T19:31:44.199Z,3.77
2022-12-01T19:34:29.271Z,3.69
2022-12-01T19:37:14.130Z,3.82
2022-12-01T19:39:59.315Z,3.73
2022-12-01T19:42:47.281Z,3.82
2022-12-01T19:45:32.536Z,3.46
2022-12-01T19:48:17.611Z,3.79
2022-12-01T19:51:03.101Z,3.80
2022-12-01T19:53:48.503Z,3.72
2022-12-01T19:56:33.623Z,3.83
2022-12-01T19:59:18.900Z,3.60
2022-12-01T20:02:03.695Z,3.81
2022-12-01T20:04:49.584Z,3.60
2022-12-01T20:07:35.168Z,3.64
2022-12-01T20:10:20.046Z,3.92
2022-12-01T20:13:06.282Z,3.48
2022-12-01T20:15:51.548Z,3.94
2022-12-01T20:18:36.630Z,3.90
2022-12-01T20:21:21.446Z,3.93
2022-12-01T20:24:06.401Z,4.27
2022-12-01T20:26:51.184Z,3.71
2022-12-01T20:29:36.038Z,3.79
2022-12-01T20:32:23.685Z,3.80
2022-12-01T20:35:08.741Z,3.75
2022-12-01T20:37:54.093Z,4.07
2022-12-01T20:40:39.641Z,4.14
2022-12-01T20:43:25.476Z,3.79
2022-12-01T20:46:11.035Z,4.10
2022-12-01T20:48:55.770Z,4.16
2022-12-01T20:51:40.615Z,3.91
2022-12-01T20:54:28.268Z,3.79
2022-12-01T20:57:14.418Z,4.20
2022-12-01T20:59:59.391Z,3.97
2022-12-01T21:02:44.474Z,4.04
2022-12-01T21:05:29.721Z,4.20
2022-12-01T21:08:14.825Z,3.99
2022-12-01T21:11:00.954Z,3.98
2022-12-01T21:13:46.449Z,3.96
2022-12-01T21:16:31.734Z,3.91
2022-12-01T21:19:17.516Z,4.08
2022-12-01T21:22:02.929Z,3.84
2022-12-01T21:24:47.801Z,4.07
2022-12-01T21:27:33.131Z,4.03
2022-12-01T21:30:18.276Z,3.85
2022-12-01T21:33:06.436Z,3.91
